Kezdőlap
METAR-TAF:

METAR-TAF

Repülőterek :

Charles B. Wheeler Downtown Airport

Kansas City, Missouri, Amerikai Egyesült Államok

földrajzi szélesség: 39-07-15N, földrajzi hosszúság: 094-35-49W, magasság: 231 m

Jelenlegi meteorológiai megfigyelések

A jelentés 40 perccel ezelõtt készült, 14:54 UTC
Délnyugati szél 6 kt
Hőmérséklet 27°C
Páratartalom 54%
Légköri nyomás 1023 hPa
Látótávolság: 16.1 km
Derült ég

METAR: KMKC 291454Z 22006KT 10SM CLR 27/17 A3020 RMK AO2 SLP219 T02720167 51007

Idő: 10:34 (15:34 UTC)

Előrejelzés

A jelentés 4 órával és 14 perccel ezelõtt készült, 11:20 UTC
Az előrejelzés 29-én 12 óra UTC és 30-én 12 óra UTC között érvényes
Dél-délnyugati szél 8 kt
Látótávolság: 10 km
Derült ég

TAF: KMKC 291120Z 2912/3012 20008KT P6SM SKC

Meteorológiai megfigyelések és előrejelzések több, mint 4000 repülőtéren (METAR és TAF jelentéseket).

A térképen piros és sárga pontok jelzik az elérhető meteorológiai állomásokat.

Mozgassa az egeret a pont fölött, hogy megjelenjen az állomás neve.

Azután kattintson az időjárási megfigyelések és előrejelzések megtekintéséhez.

A térkép megváltoztatása: kattintson a fekete keresztel jelölt zöld gombra ráközelítéshez, a vonallal jelölt zöld gombra távolításhoz, vagy a zöld nyilakra a szomszédos térképek eléréséhez.


METAR-TAF: